Lauro Muller, Brazil
Current Conditions -  °F | °C
As of 10:00 PM on Wednesday 28 Jan 2015 (Local Time) from SBCM Reporting Station
Light Rain Light Rain  
Wind Chill: 77°   Ceiling: 10000
Heat Index: 78°   Visibility: 6mi
Dew Point: 75°   Wind: 0mph
Humidity: 94%   Direction: NA
Pressure: 29.77"   Gusts: NA
Location:  28.39°S, 49.4°W
Report Text: SBCM 290000Z 00000KT 9999 -RA SCT020 BKN100 25/24 Q1008
Loading
Personal Weather Stations






























Interactive Weather Map New forecast layout! Learn more

10-Day Weather Forecast

Advertisements
Track Severe Weather on mobile